Time,TemperatureF,DewpointF,PressureIn,WindDirection,WindDirectionDegrees,WindSpeedMPH,WindSpeedGustMPH,Humidity,HourlyPrecipIn,Conditions,Clouds,dailyrainin,SoftwareType,DateUTC
2013-04-16 00:04:00,41.0,36.5,29.93,NW,315,0.7,3.8,84,0.00,RA,FEW,0.00,WeatherDisplay:10.37,2013-04-16 05:04:00,
2013-04-16 00:10:00,41.0,36.5,29.93,NW,315,1.6,4.6,84,0.00,OVC,FEW,0.00,WeatherDisplay:10.37,2013-04-16 05:10:00,
2013-04-16 00:16:00,41.2,36.7,29.94,NW,315,1.6,4.6,84,0.00,OVC,FEW,0.00,WeatherDisplay:10.37,2013-04-16 05:16:00,
2013-04-16 00:21:00,41.2,36.7,29.94,NW,315,1.6,3.5,84,0.00,OVC,FEW,0.00,WeatherDisplay:10.37,2013-04-16 05:21:00,
2013-04-16 00:27:00,41.4,36.9,29.95,NW,315,0.0,1.2,84,0.00,OVC,FEW,0.00,WeatherDisplay:10.37,2013-04-16 05:27:00,
2013-04-16 00:32:00,41.4,36.9,29.95,NE,45,0.7,3.5,84,0.00,OVC,FEW,0.00,WeatherDisplay:10.37,2013-04-16 05:32:00,
2013-04-16 00:38:00,41.4,36.9,29.95,NW,315,1.6,3.5,84,0.00,OVC,FEW,0.00,WeatherDisplay:10.37,2013-04-16 05:38:00,
2013-04-16 00:44:00,41.5,37.1,29.96,NW,315,1.6,3.5,84,0.00,OVC,FEW,0.00,WeatherDisplay:10.37,2013-04-16 05:44:00,
2013-04-16 00:49:00,41.5,37.1,29.95,NW,315,0.0,0.0,84,0.00,OVC,FEW,0.00,WeatherDisplay:10.37,2013-04-16 05:49:00,
2013-04-16 00:55:00,41.5,37.1,29.95,NW,315,0.7,4.6,84,0.00,OVC,FEW,0.00,WeatherDisplay:10.37,2013-04-16 05:55:00,
2013-04-16 01:00:00,41.5,37.1,29.95,West,270,1.6,3.5,84,0.00,OVC,FEW,0.00,WeatherDisplay:10.37,2013-04-16 06:00:00,
2013-04-16 01:06:00,41.5,37.1,29.95,West,270,1.6,2.3,84,0.00,OVC,FEW,0.00,WeatherDisplay:10.37,2013-04-16 06:06:00,
2013-04-16 01:12:00,41.7,37.2,29.94,NW,315,1.6,4.6,84,0.00,OVC,FEW,0.00,WeatherDisplay:10.37,2013-04-16 06:12:00,
2013-04-16 01:17:00,41.7,37.2,29.93,NW,315,3.1,5.8,84,0.00,OVC,FEW,0.00,WeatherDisplay:10.37,2013-04-16 06:17:00,
2013-04-16 01:23:00,32.4,12.8,30.16,NW,315,3.8,6.9,44,0.00,OVC,FEW,0.00,WeatherDisplay:10.37,2013-04-16 06:23:00,
2013-04-16 01:28:00,41.5,37.1,29.95,NW,315,2.2,8.1,84,0.00,OVC,FEW,0.00,WeatherDisplay:10.37,2013-04-16 06:28:00,
2013-04-16 01:34:00,41.7,37.2,29.95,West,270,3.1,5.8,84,0.00,OVC,FEW,0.00,WeatherDisplay:10.37,2013-04-16 06:34:00,
2013-04-16 01:40:00,41.5,37.1,29.95,NW,315,1.6,4.6,84,0.00,OVC,FEW,0.00,WeatherDisplay:10.37,2013-04-16 06:40:00,
2013-04-16 01:45:00,41.4,36.9,29.96,West,270,3.1,5.8,84,0.00,OVC,FEW,0.00,WeatherDisplay:10.37,2013-04-16 06:45:00,
2013-04-16 01:51:00,41.2,36.7,29.96,NW,315,3.1,4.6,84,0.00,OVC,FEW,0.00,WeatherDisplay:10.37,2013-04-16 06:51:00,
2013-04-16 01:56:00,41.2,36.7,29.96,North,0,3.1,5.8,84,0.00,OVC,FEW,0.00,WeatherDisplay:10.37,2013-04-16 06:56:00,
2013-04-16 02:02:00,41.0,36.5,29.97,West,270,0.7,3.5,84,0.00,OVC,FEW,0.00,WeatherDisplay:10.37,2013-04-16 07:02:00,
2013-04-16 02:08:00,41.0,36.5,29.97,NW,315,1.6,5.8,84,0.00,OVC,FEW,0.00,WeatherDisplay:10.37,2013-04-16 07:08:00,
2013-04-16 02:13:00,41.0,36.5,29.97,NW,315,3.1,9.2,84,0.00,OVC,FEW,0.00,WeatherDisplay:10.37,2013-04-16 07:13:00,
2013-04-16 02:19:00,41.0,36.5,29.98,NW,315,3.1,5.8,84,0.00,OVC,FEW,0.00,WeatherDisplay:10.37,2013-04-16 07:19:00,
2013-04-16 02:24:00,40.8,36.4,29.97,NW,315,4.5,8.1,84,0.00,OVC,FEW,0.00,WeatherDisplay:10.37,2013-04-16 07:24:00,
2013-04-16 02:30:00,40.8,36.4,29.97,NW,315,4.5,8.1,84,0.00,OVC,FEW,0.00,WeatherDisplay:10.37,2013-04-16 07:30:00,
2013-04-16 02:36:00,40.5,36.0,29.98,North,0,3.1,8.1,84,0.00,OVC,FEW,0.00,WeatherDisplay:10.37,2013-04-16 07:36:00,
2013-04-16 02:41:00,40.3,35.8,29.98,NW,315,3.8,8.1,84,0.00,OVC,FEW,0.00,WeatherDisplay:10.37,2013-04-16 07:41:00,
2013-04-16 02:47:00,40.3,35.8,29.98,West,270,5.4,10.4,84,0.00,OVC,FEW,0.00,WeatherDisplay:10.37,2013-04-16 07:47:00,
2013-04-16 02:52:00,40.3,35.8,29.98,West,270,3.1,6.0,84,0.00,OVC,FEW,0.00,WeatherDisplay:10.37,2013-04-16 07:52:00,
2013-04-16 02:58:00,40.1,35.4,29.98,NW,315,3.1,8.1,83,0.00,OVC,FEW,0.00,WeatherDisplay:10.37,2013-04-16 07:58:00,
2013-04-16 03:04:00,39.9,35.2,29.98,NW,315,3.1,5.8,83,0.00,OVC,FEW,0.00,WeatherDisplay:10.37,2013-04-16 08:04:00,
2013-04-16 03:09:00,39.9,35.2,29.98,NW,315,2.2,5.8,83,0.00,OVC,FEW,0.00,WeatherDisplay:10.37,2013-04-16 08:09:00,
2013-04-16 03:15:00,39.7,34.7,29.99,NW,315,3.1,5.8,82,0.00,OVC,FEW,0.00,WeatherDisplay:10.37,2013-04-16 08:15:00,
2013-04-16 03:20:00,39.6,34.2,29.99,North,0,1.6,5.8,81,0.00,OVC,FEW,0.00,WeatherDisplay:10.37,2013-04-16 08:20:00,
2013-04-16 03:26:00,39.4,33.7,30.00,NW,315,3.1,9.2,80,0.00,OVC,FEW,0.00,WeatherDisplay:10.37,2013-04-16 08:26:00,
2013-04-16 03:32:00,39.2,33.2,29.99,West,270,3.8,6.0,79,0.00,OVC,FEW,0.00,WeatherDisplay:10.37,2013-04-16 08:32:00,
2013-04-16 03:37:00,39.2,32.6,29.99,NW,315,3.8,9.2,77,0.00,OVC,FEW,0.00,WeatherDisplay:10.37,2013-04-16 08:37:00,
2013-04-16 03:43:00,39.0,32.4,30.00,NW,315,1.6,3.5,77,0.00,OVC,FEW,0.00,WeatherDisplay:10.37,2013-04-16 08:43:00,
2013-04-16 03:48:00,38.8,31.9,30.00,NW,315,2.2,5.8,76,0.00,OVC,FEW,0.00,WeatherDisplay:10.37,2013-04-16 08:48:00,
2013-04-16 03:54:00,38.7,31.7,30.00,North,0,0.0,8.1,76,0.00,OVC,FEW,0.00,WeatherDisplay:10.37,2013-04-16 08:54:00,
2013-04-16 04:00:00,38.3,31.7,30.01,North,0,0.7,3.5,77,0.00,OVC,FEW,0.00,WeatherDisplay:10.37,2013-04-16 09:00:00,
2013-04-16 04:05:00,38.3,31.7,30.01,NW,315,3.1,4.6,77,0.00,OVC,FEW,0.00,WeatherDisplay:10.37,2013-04-16 09:05:00,
2013-04-16 04:11:00,38.1,31.5,30.01,NW,315,0.7,3.5,77,0.00,OVC,FEW,0.00,WeatherDisplay:10.37,2013-04-16 09:11:00,
2013-04-16 04:16:00,37.8,31.2,30.01,NW,315,2.2,5.8,77,0.00,OVC,FEW,0.00,WeatherDisplay:10.37,2013-04-16 09:16:00,
2013-04-16 04:22:00,37.8,31.2,30.02,North,0,2.2,5.8,77,0.00,OVC,FEW,0.00,WeatherDisplay:10.37,2013-04-16 09:22:00,
2013-04-16 04:28:00,37.6,31.0,30.02,NW,315,1.6,6.9,77,0.00,OVC,FEW,0.00,WeatherDisplay:10.37,2013-04-16 09:28:00,
2013-04-16 04:33:00,37.6,31.0,30.02,NW,315,3.1,4.6,77,0.00,OVC,FEW,0.00,WeatherDisplay:10.37,2013-04-16 09:33:00,
2013-04-16 04:39:00,37.2,31.0,30.02,NW,315,3.1,4.6,78,0.00,OVC,FEW,0.00,WeatherDisplay:10.37,2013-04-16 09:39:00,
2013-04-16 04:44:00,37.4,31.2,30.01,WNW,292,2.2,6.9,78,0.00,OVC,FEW,0.00,WeatherDisplay:10.37,2013-04-16 09:44:00,
2013-04-16 04:50:00,37.0,30.8,30.02,NW,315,0.7,3.5,78,0.00,OVC,FEW,0.00,WeatherDisplay:10.37,2013-04-16 09:50:00,
2013-04-16 04:56:00,36.9,30.6,30.01,South,180,0.0,4.6,78,0.00,OVC,FEW,0.00,WeatherDisplay:10.37,2013-04-16 09:56:00,
2013-04-16 05:01:00,36.9,30.6,30.01,North,0,0.7,3.5,78,0.00,OVC,FEW,0.00,WeatherDisplay:10.37,2013-04-16 10:01:00,
2013-04-16 05:07:00,36.7,30.5,30.02,NW,315,3.8,6.0,78,0.00,OVC,FEW,0.00,WeatherDisplay:10.37,2013-04-16 10:07:00,
2013-04-16 05:12:00,36.7,30.8,30.02,North,0,2.2,5.8,79,0.00,OVC,FEW,0.00,WeatherDisplay:10.37,2013-04-16 10:12:00,
2013-04-16 05:18:00,36.7,30.8,30.02,North,0,0.0,3.5,79,0.00,OVC,FEW,0.00,WeatherDisplay:10.37,2013-04-16 10:18:00,
2013-04-16 05:24:00,36.5,30.6,30.02,North,0,0.0,4.6,79,0.00,OVC,FEW,0.00,WeatherDisplay:10.37,2013-04-16 10:24:00,
2013-04-16 05:29:00,36.1,30.3,30.02,West,270,0.0,0.0,79,0.00,OVC,FEW,0.00,WeatherDisplay:10.37,2013-04-16 10:29:00,
2013-04-16 05:35:00,36.0,30.4,30.03,NW,315,0.7,2.3,80,0.00,OVC,FEW,0.00,WeatherDisplay:10.37,2013-04-16 10:35:00,
2013-04-16 05:40:00,35.8,30.2,30.03,SW,225,0.0,0.0,80,0.00,OVC,FEW,0.00,WeatherDisplay:10.37,2013-04-16 10:40:00,
2013-04-16 05:46:00,35.6,30.0,30.05,West,270,0.0,0.0,80,0.00,OVC,FEW,0.00,WeatherDisplay:10.37,2013-04-16 10:46:00,
2013-04-16 05:52:00,35.6,30.3,30.05,NW,315,1.6,3.5,81,0.00,OVC,FEW,0.00,WeatherDisplay:10.37,2013-04-16 10:52:00,
2013-04-16 05:57:00,35.6,30.3,30.05,West,270,0.0,1.2,81,0.00,OVC,FEW,0.00,WeatherDisplay:10.37,2013-04-16 10:57:00,
2013-04-16 06:03:00,35.4,30.2,30.05,NW,315,0.0,2.3,81,0.00,OVC,FEW,0.00,WeatherDisplay:10.37,2013-04-16 11:03:00,
2013-04-16 06:08:00,35.4,30.5,30.06,NW,315,0.0,0.0,82,0.00,OVC,FEW,0.00,WeatherDisplay:10.37,2013-04-16 11:08:00,
2013-04-16 06:14:00,35.1,30.1,30.05,NW,315,0.0,1.2,82,0.00,OVC,FEW,0.00,WeatherDisplay:10.37,2013-04-16 11:14:00,
2013-04-16 06:20:00,34.9,29.9,30.06,West,270,0.0,1.2,82,0.00,OVC,FEW,0.00,WeatherDisplay:10.37,2013-04-16 11:20:00,
2013-04-16 06:25:00,34.9,30.2,30.06,West,270,0.0,0.0,83,0.00,OVC,FEW,0.00,WeatherDisplay:10.37,2013-04-16 11:25:00,
2013-04-16 06:31:00,34.7,30.1,30.06,NW,315,0.0,0.0,83,0.00,OVC,FEW,0.00,WeatherDisplay:10.37,2013-04-16 11:31:00,
2013-04-16 06:37:00,34.9,30.2,30.06,West,270,0.0,0.0,83,0.00,OVC,FEW,0.00,WeatherDisplay:10.37,2013-04-16 11:37:00,
2013-04-16 06:42:00,35.1,30.4,30.06,NW,315,0.7,3.8,83,0.00,OVC,FEW,0.00,WeatherDisplay:10.37,2013-04-16 11:42:00,
2013-04-16 06:48:00,35.2,30.6,30.06,West,270,0.7,2.3,83,0.00,OVC,FEW,0.00,WeatherDisplay:10.37,2013-04-16 11:48:00,
2013-04-16 06:53:00,35.4,30.5,30.07,NW,315,0.7,3.5,82,0.00,OVC,FEW,0.00,WeatherDisplay:10.37,2013-04-16 11:53:00,
2013-04-16 06:59:00,35.4,30.2,30.07,NW,315,1.6,3.5,81,0.00,OVC,FEW,0.00,WeatherDisplay:10.37,2013-04-16 11:59:00,
2013-04-16 07:04:00,35.4,30.2,30.07,NW,315,2.2,3.8,81,0.00,OVC,FEW,0.00,WeatherDisplay:10.37,2013-04-16 12:04:00,
2013-04-16 07:10:00,35.8,30.2,30.08,North,0,0.7,3.5,80,0.00,OVC,FEW,0.00,WeatherDisplay:10.37,2013-04-16 12:10:00,
2013-04-16 07:16:00,36.5,30.9,30.08,NW,315,2.2,5.4,80,0.00,OVC,FEW,0.00,WeatherDisplay:10.37,2013-04-16 12:16:00,
2013-04-16 07:21:00,37.2,31.0,30.08,North,0,0.7,3.5,78,0.00,OVC,FEW,0.00,WeatherDisplay:10.37,2013-04-16 12:21:00,
2013-04-16 07:27:00,37.2,29.7,30.08,North,0,4.5,5.8,74,0.00,OVC,FEW,0.00,WeatherDisplay:10.37,2013-04-16 12:27:00,
2013-04-16 07:32:00,37.0,29.5,30.08,NNE,22,2.2,5.8,74,0.00,OVC,FEW,0.00,WeatherDisplay:10.37,2013-04-16 12:32:00,
2013-04-16 07:38:00,37.0,29.5,30.08,North,0,3.1,6.0,74,0.00,OVC,FEW,0.00,WeatherDisplay:10.37,2013-04-16 12:38:00,
2013-04-16 07:44:00,37.8,29.9,30.08,North,0,2.2,5.8,73,0.00,OVC,FEW,0.00,WeatherDisplay:10.37,2013-04-16 12:44:00,
2013-04-16 07:49:00,38.1,29.9,30.09,NW,315,3.1,5.8,72,0.00,OVC,FEW,0.00,WeatherDisplay:10.37,2013-04-16 12:49:00,
2013-04-16 07:55:00,38.5,29.9,30.09,North,0,3.8,6.0,71,0.00,OVC,FEW,0.00,WeatherDisplay:10.37,2013-04-16 12:55:00,
2013-04-16 08:00:00,39.0,30.1,30.09,North,0,3.8,5.8,70,0.00,OVC,FEW,0.00,WeatherDisplay:10.37,2013-04-16 13:00:00,
2013-04-16 08:06:00,39.2,29.5,30.08,North,0,6.0,10.4,68,0.00,OVC,FEW,0.00,WeatherDisplay:10.37,2013-04-16 13:06:00,
2013-04-16 08:12:00,39.0,30.1,30.07,North,0,3.8,8.1,70,0.00,OVC,FEW,0.00,WeatherDisplay:10.37,2013-04-16 13:12:00,
2013-04-16 08:17:00,38.8,29.9,30.04,NE,45,8.3,12.7,70,0.00,OVC,FEW,0.00,WeatherDisplay:10.37,2013-04-16 13:17:00,
2013-04-16 08:23:00,38.8,29.5,30.06,NW,315,7.6,13.8,69,0.00,OVC,FEW,0.00,WeatherDisplay:10.37,2013-04-16 13:23:00,
2013-04-16 08:28:00,38.5,28.8,30.09,North,0,7.6,16.1,68,0.00,OVC,FEW,0.00,WeatherDisplay:10.37,2013-04-16 13:28:00,
2013-04-16 08:34:00,39.0,29.7,30.10,North,0,3.1,5.8,69,0.00,OVC,FEW,0.00,WeatherDisplay:10.37,2013-04-16 13:34:00,
2013-04-16 08:40:00,39.6,29.9,30.11,NW,315,0.7,8.1,68,0.00,OVC,FEW,0.00,WeatherDisplay:10.37,2013-04-16 13:40:00,
2013-04-16 08:45:00,39.6,29.5,30.11,NNE,22,2.2,6.9,67,0.00,OVC,FEW,0.00,WeatherDisplay:10.37,2013-04-16 13:45:00,
2013-04-16 08:51:00,40.1,30.0,30.11,North,0,1.6,5.8,67,0.00,OVC,FEW,0.00,WeatherDisplay:10.37,2013-04-16 13:51:00,
2013-04-16 08:56:00,40.3,29.4,30.11,North,0,1.6,8.1,65,0.00,OVC,FEW,0.00,WeatherDisplay:10.37,2013-04-16 13:56:00,
2013-04-16 09:02:00,40.8,30.3,30.12,NW,315,2.2,5.8,66,0.00,OVC,FEW,0.00,WeatherDisplay:10.37,2013-04-16 14:02:00,
2013-04-16 09:08:00,41.4,30.1,30.11,North,0,4.5,8.3,64,0.00,OVC,FEW,0.00,WeatherDisplay:10.37,2013-04-16 14:08:00,
2013-04-16 09:13:00,42.3,30.9,30.12,NW,315,2.2,5.8,64,0.00,OVC,FEW,0.00,WeatherDisplay:10.37,2013-04-16 14:13:00,
2013-04-16 09:19:00,43.0,30.0,30.12,West,270,3.8,5.8,60,0.00,OVC,FEW,0.00,WeatherDisplay:10.37,2013-04-16 14:19:00,
2013-04-16 09:24:00,42.3,28.9,30.11,North,0,4.5,6.0,59,0.00,OVC,FEW,0.00,WeatherDisplay:10.37,2013-04-16 14:24:00,
2013-04-16 09:30:00,42.1,29.2,30.12,NW,315,3.1,8.1,60,0.00,OVC,FEW,0.00,WeatherDisplay:10.37,2013-04-16 14:30:00,
2013-04-16 09:36:00,43.0,30.4,30.12,North,0,1.6,4.6,61,0.00,OVC,FEW,0.00,WeatherDisplay:10.37,2013-04-16 14:36:00,
2013-04-16 09:42:00,43.3,28.7,30.12,NW,315,4.5,6.9,56,0.00,OVC,FEW,0.00,WeatherDisplay:10.37,2013-04-16 14:42:00,
2013-04-16 09:48:00,44.2,29.1,30.11,East,90,3.1,8.1,55,0.00,OVC,FEW,0.00,WeatherDisplay:10.37,2013-04-16 14:48:00,
2013-04-16 09:53:00,43.3,28.7,30.11,North,0,2.2,8.1,56,0.00,OVC,FEW,0.00,WeatherDisplay:10.37,2013-04-16 14:53:00,
2013-04-16 09:59:00,42.8,27.7,30.11,NW,315,4.5,8.1,55,0.00,OVC,FEW,0.00,WeatherDisplay:10.37,2013-04-16 14:59:00,
2013-04-16 10:04:00,42.8,28.2,30.11,NW,315,3.8,10.4,56,0.00,OVC,FEW,0.00,WeatherDisplay:10.37,2013-04-16 15:04:00,
2013-04-16 10:10:00,43.0,28.8,30.12,North,0,3.1,9.2,57,0.00,OVC,FEW,0.00,WeatherDisplay:10.37,2013-04-16 15:10:00,
2013-04-16 10:16:00,43.9,28.7,30.12,North,0,4.5,8.1,55,0.00,OVC,FEW,0.00,WeatherDisplay:10.37,2013-04-16 15:16:00,
2013-04-16 10:21:00,46.0,29.8,30.12,West,270,3.1,6.9,53,0.00,OVC,FEW,0.00,WeatherDisplay:10.37,2013-04-16 15:21:00,
2013-04-16 10:27:00,44.8,28.2,30.12,NW,315,4.5,9.2,52,0.00,OVC,FEW,0.00,WeatherDisplay:10.37,2013-04-16 15:27:00,
2013-04-16 10:32:00,44.6,28.5,30.12,NW,315,3.8,5.8,53,0.00,OVC,FEW,0.00,WeatherDisplay:10.37,2013-04-16 15:32:00,
2013-04-16 10:38:00,44.6,28.5,30.12,North,0,0.7,8.1,53,0.00,OVC,FEW,0.00,WeatherDisplay:10.37,2013-04-16 15:38:00,
2013-04-16 10:44:00,44.6,29.0,30.13,West,270,4.5,10.4,54,0.00,OVC,FEW,0.00,WeatherDisplay:10.37,2013-04-16 15:44:00,
2013-04-16 10:49:00,44.8,28.7,30.14,NW,315,4.5,7.6,53,0.00,OVC,FEW,0.00,WeatherDisplay:10.37,2013-04-16 15:49:00,
2013-04-16 10:55:00,44.4,28.8,30.13,NW,315,1.6,3.8,54,0.00,OVC,FEW,0.00,WeatherDisplay:10.37,2013-04-16 15:55:00,
2013-04-16 11:00:00,44.1,29.8,30.13,North,0,4.5,8.1,57,0.00,OVC,FEW,0.00,WeatherDisplay:10.37,2013-04-16 16:00:00,
2013-04-16 11:06:00,43.9,30.0,30.13,NW,315,3.8,9.2,58,0.00,OVC,FEW,0.00,WeatherDisplay:10.37,2013-04-16 16:06:00,
2013-04-16 11:12:00,43.7,30.3,30.14,NW,315,4.5,8.1,59,0.00,OVC,FEW,0.00,WeatherDisplay:10.37,2013-04-16 16:12:00,
2013-04-16 11:17:00,43.7,30.3,30.14,NW,315,2.2,8.1,59,0.00,OVC,FEW,0.00,WeatherDisplay:10.37,2013-04-16 16:17:00,
2013-04-16 11:23:00,44.2,31.2,30.15,North,0,1.6,3.8,60,0.00,OVC,FEW,0.00,WeatherDisplay:10.37,2013-04-16 16:23:00,
2013-04-16 11:28:00,44.6,29.9,30.15,NW,315,2.2,7.6,56,0.00,OVC,FEW,0.00,WeatherDisplay:10.37,2013-04-16 16:28:00,
2013-04-16 11:34:00,45.0,30.6,30.15,West,270,0.7,5.8,57,0.00,OVC,FEW,0.00,WeatherDisplay:10.37,2013-04-16 16:34:00,
2013-04-16 11:40:00,44.8,28.7,30.14,North,0,3.1,5.8,53,0.00,OVC,FEW,0.00,WeatherDisplay:10.37,2013-04-16 16:40:00,
2013-04-16 11:45:00,45.1,29.5,30.14,NW,315,3.1,5.8,54,0.00,OVC,FEW,0.00,WeatherDisplay:10.37,2013-04-16 16:45:00,
2013-04-16 11:51:00,45.7,30.0,30.14,NW,315,2.2,5.8,54,0.00,OVC,FEW,0.00,WeatherDisplay:10.37,2013-04-16 16:51:00,
2013-04-16 11:56:00,46.0,29.4,30.14,North,0,3.8,6.0,52,0.00,OVC,FEW,0.00,WeatherDisplay:10.37,2013-04-16 16:56:00,
2013-04-16 12:02:00,45.5,28.9,30.13,North,0,3.8,6.0,52,0.00,OVC,FEW,0.00,WeatherDisplay:10.37,2013-04-16 17:02:00,
2013-04-16 12:08:00,45.9,29.2,30.14,North,0,1.6,5.8,52,0.00,OVC,FEW,0.00,WeatherDisplay:10.37,2013-04-16 17:08:00,
2013-04-16 12:13:00,46.2,29.1,30.14,NW,315,3.8,6.9,51,0.00,OVC,FEW,0.00,WeatherDisplay:10.37,2013-04-16 17:13:00,
2013-04-16 12:19:00,46.4,29.7,30.13,West,270,2.2,8.1,52,0.00,OVC,FEW,0.00,WeatherDisplay:10.37,2013-04-16 17:19:00,
2013-04-16 12:24:00,46.2,29.1,30.14,North,0,4.5,8.1,51,0.00,OVC,FEW,0.00,WeatherDisplay:10.37,2013-04-16 17:24:00,
2013-04-16 12:30:00,46.2,29.5,30.14,NW,315,3.1,5.8,52,0.00,OVC,FEW,0.00,WeatherDisplay:10.37,2013-04-16 17:30:00,
2013-04-16 12:36:00,47.3,30.5,30.13,NW,315,3.8,6.9,52,0.00,OVC,FEW,0.00,WeatherDisplay:10.37,2013-04-16 17:36:00,
2013-04-16 12:41:00,49.6,31.7,30.13,NW,315,1.6,5.8,50,0.00,OVC,FEW,0.00,WeatherDisplay:10.37,2013-04-16 17:41:00,
2013-04-16 12:47:00,48.7,29.9,30.13,North,0,5.4,10.4,48,0.00,OVC,FEW,0.00,WeatherDisplay:10.37,2013-04-16 17:47:00,
2013-04-16 12:52:00,48.4,30.1,30.13,NW,315,3.8,8.1,49,0.00,OVC,FEW,0.00,WeatherDisplay:10.37,2013-04-16 17:52:00,
2013-04-16 12:58:00,47.8,30.6,30.13,WSW,248,5.4,9.2,51,0.00,OVC,FEW,0.00,WeatherDisplay:10.37,2013-04-16 17:58:00,
2013-04-16 13:04:00,47.8,31.0,30.13,NE,45,3.8,6.9,52,0.00,OVC,FEW,0.00,WeatherDisplay:10.37,2013-04-16 18:04:00,
2013-04-16 13:09:00,48.7,30.9,30.13,North,0,3.1,5.8,50,0.00,OVC,FEW,0.00,WeatherDisplay:10.37,2013-04-16 18:09:00,
2013-04-16 13:15:00,48.6,31.2,30.14,North,0,0.7,6.9,51,0.00,OVC,FEW,0.00,WeatherDisplay:10.37,2013-04-16 18:15:00,
2013-04-16 13:20:00,48.2,30.4,30.13,NW,315,2.2,3.5,50,0.00,OVC,FEW,0.00,WeatherDisplay:10.37,2013-04-16 18:20:00,
2013-04-16 13:26:00,48.4,29.1,30.13,NW,315,3.8,5.8,47,0.00,OVC,FEW,0.00,WeatherDisplay:10.37,2013-04-16 18:26:00,
2013-04-16 13:32:00,48.6,29.7,30.11,NW,315,3.1,8.1,48,0.00,OVC,FEW,0.00,WeatherDisplay:10.37,2013-04-16 18:32:00,
2013-04-16 13:37:00,48.7,29.9,30.11,North,0,4.5,8.1,48,0.00,OVC,FEW,0.00,WeatherDisplay:10.37,2013-04-16 18:37:00,
2013-04-16 13:43:00,48.6,29.7,30.12,North,0,6.9,9.8,48,0.00,OVC,FEW,0.00,WeatherDisplay:10.37,2013-04-16 18:43:00,
2013-04-16 13:48:00,49.3,30.4,30.13,North,0,4.5,6.9,48,0.00,OVC,FEW,0.00,WeatherDisplay:10.37,2013-04-16 18:48:00,
2013-04-16 13:54:00,50.0,31.1,30.12,NW,315,3.1,10.4,48,0.00,OVC,FEW,0.00,WeatherDisplay:10.37,2013-04-16 18:54:00,
2013-04-16 14:00:00,49.6,31.2,30.12,North,0,3.1,6.9,49,0.00,OVC,FEW,0.00,WeatherDisplay:10.37,2013-04-16 19:00:00,
2013-04-16 14:05:00,49.8,30.9,30.12,NW,315,3.8,8.1,48,0.00,OVC,FEW,0.00,WeatherDisplay:10.37,2013-04-16 19:05:00,
2013-04-16 14:12:00,49.6,30.7,30.12,North,0,3.8,8.3,48,0.00,OVC,FEW,0.00,WeatherDisplay:10.37,2013-04-16 19:12:00,
2013-04-16 14:17:00,50.0,30.5,30.12,NW,315,3.1,8.1,47,0.00,OVC,FEW,0.00,WeatherDisplay:10.37,2013-04-16 19:17:00,
2013-04-16 14:23:00,50.9,29.7,30.12,NW,315,2.2,3.5,44,0.00,OVC,FEW,0.00,WeatherDisplay:10.37,2013-04-16 19:23:00,
2013-04-16 14:28:00,50.9,30.3,30.12,North,0,5.4,10.7,45,0.00,OVC,FEW,0.00,WeatherDisplay:10.37,2013-04-16 19:28:00,
2013-04-16 14:34:00,51.4,31.3,30.12,NE,45,3.1,5.8,46,0.00,OVC,FEW,0.00,WeatherDisplay:10.37,2013-04-16 19:34:00,
2013-04-16 14:40:00,51.6,32.0,30.12,NW,315,1.6,5.8,47,0.00,OVC,FEW,0.00,WeatherDisplay:10.37,2013-04-16 19:40:00,
2013-04-16 14:45:00,51.6,30.9,30.13,NW,315,4.5,9.2,45,0.00,OVC,FEW,0.00,WeatherDisplay:10.37,2013-04-16 19:45:00,
2013-04-16 14:52:00,50.7,30.1,30.13,NE,45,4.5,9.2,45,0.00,OVC,FEW,0.00,WeatherDisplay:10.37,2013-04-16 19:52:00,
2013-04-16 14:57:00,50.7,30.7,30.12,NW,315,2.2,8.1,46,0.00,OVC,FEW,0.00,WeatherDisplay:10.37,2013-04-16 19:57:00,
2013-04-16 15:03:00,50.5,31.0,30.12,NW,315,3.8,6.9,47,0.00,OVC,FEW,0.00,WeatherDisplay:10.37,2013-04-16 20:03:00,
2013-04-16 15:08:00,51.1,32.1,30.11,ENE,68,2.2,5.8,48,0.00,OVC,FEW,0.00,WeatherDisplay:10.37,2013-04-16 20:08:00,
2013-04-16 15:14:00,51.4,31.3,30.11,SW,225,2.2,6.9,46,0.00,OVC,FEW,0.00,WeatherDisplay:10.37,2013-04-16 20:14:00,
2013-04-16 15:20:00,52.9,31.5,30.11,North,0,3.8,8.1,44,0.00,OVC,FEW,0.00,WeatherDisplay:10.37,2013-04-16 20:20:00,
2013-04-16 15:25:00,53.4,31.5,30.11,NW,315,3.8,6.0,43,0.00,OVC,FEW,0.00,WeatherDisplay:10.37,2013-04-16 20:25:00,
2013-04-16 15:32:00,53.2,31.9,30.11,NE,45,3.1,6.0,44,0.00,OVC,FEW,0.00,WeatherDisplay:10.37,2013-04-16 20:32:00,
2013-04-16 15:37:00,52.5,31.2,30.11,North,0,2.2,6.9,44,0.00,OVC,FEW,0.00,WeatherDisplay:10.37,2013-04-16 20:37:00,
2013-04-16 15:43:00,52.2,30.9,30.11,NW,315,1.6,6.0,44,0.00,OVC,FEW,0.00,WeatherDisplay:10.37,2013-04-16 20:43:00,
2013-04-16 15:48:00,51.6,30.9,30.12,NNE,22,3.1,5.8,45,0.00,OVC,FEW,0.00,WeatherDisplay:10.37,2013-04-16 20:48:00,
2013-04-16 15:54:00,51.8,31.1,30.12,NW,315,3.8,11.5,45,0.00,OVC,FEW,0.00,WeatherDisplay:10.37,2013-04-16 20:54:00,
2013-04-16 16:00:00,51.4,30.8,30.12,NW,315,4.5,6.9,45,0.00,OVC,FEW,0.00,WeatherDisplay:10.37,2013-04-16 21:00:00,
2013-04-16 16:05:00,51.3,31.2,30.11,NW,315,3.1,8.1,46,0.00,OVC,FEW,0.00,WeatherDisplay:10.37,2013-04-16 21:05:00,
2013-04-16 16:11:00,51.3,30.6,30.12,NE,45,3.1,5.8,45,0.00,OVC,FEW,0.00,WeatherDisplay:10.37,2013-04-16 21:11:00,
2013-04-16 16:16:00,51.4,31.3,30.12,NW,315,3.8,6.0,46,0.00,OVC,FEW,0.00,WeatherDisplay:10.37,2013-04-16 21:16:00,
2013-04-16 16:22:00,51.6,32.0,30.12,NE,45,2.2,5.8,47,0.00,OVC,FEW,0.00,WeatherDisplay:10.37,2013-04-16 21:22:00,
2013-04-16 16:28:00,52.0,32.4,30.12,NE,45,0.7,2.3,47,0.00,OVC,FEW,0.00,WeatherDisplay:10.37,2013-04-16 21:28:00,
2013-04-16 16:33:00,52.3,31.6,30.11,NE,45,4.5,6.9,45,0.00,OVC,FEW,0.00,WeatherDisplay:10.37,2013-04-16 21:33:00,
2013-04-16 16:39:00,52.0,31.8,30.11,East,90,3.1,6.9,46,0.00,OVC,FEW,0.00,WeatherDisplay:10.37,2013-04-16 21:39:00,
2013-04-16 16:44:00,52.0,31.8,30.11,North,0,3.1,5.8,46,0.00,OVC,FEW,0.00,WeatherDisplay:10.37,2013-04-16 21:44:00,
2013-04-16 16:50:00,52.2,31.4,30.11,NE,45,3.8,6.9,45,0.00,OVC,FEW,0.00,WeatherDisplay:10.37,2013-04-16 21:50:00,
2013-04-16 16:56:00,52.0,31.8,30.11,NE,45,3.1,8.1,46,0.00,OVC,FEW,0.00,WeatherDisplay:10.37,2013-04-16 21:56:00,
2013-04-16 17:01:00,52.2,32.0,30.11,North,0,3.8,6.0,46,0.00,OVC,FEW,0.00,WeatherDisplay:10.37,2013-04-16 22:01:00,
2013-04-16 17:07:00,52.0,31.8,30.12,North,0,3.1,6.0,46,0.00,OVC,FEW,0.00,WeatherDisplay:10.37,2013-04-16 22:07:00,
2013-04-16 17:12:00,52.0,32.4,30.11,East,90,1.6,5.8,47,0.00,OVC,FEW,0.00,WeatherDisplay:10.37,2013-04-16 22:12:00,
2013-04-16 17:18:00,52.0,31.8,30.12,East,90,1.6,5.8,46,0.00,OVC,FEW,0.00,WeatherDisplay:10.37,2013-04-16 22:18:00,
2013-04-16 17:24:00,52.0,31.8,30.12,North,0,1.6,5.8,46,0.00,OVC,FEW,0.00,WeatherDisplay:10.37,2013-04-16 22:24:00,
2013-04-16 17:29:00,52.0,32.4,30.12,NE,45,3.1,5.8,47,0.00,OVC,FEW,0.00,WeatherDisplay:10.37,2013-04-16 22:29:00,
2013-04-16 17:35:00,52.0,31.8,30.12,NE,45,2.2,5.8,46,0.00,OVC,FEW,0.00,WeatherDisplay:10.37,2013-04-16 22:35:00,
2013-04-16 17:40:00,51.8,31.7,30.12,NE,45,0.7,4.6,46,0.00,OVC,FEW,0.00,WeatherDisplay:10.37,2013-04-16 22:40:00,
2013-04-16 17:46:00,52.0,32.4,30.12,NE,45,2.2,3.5,47,0.00,OVC,FEW,0.00,WeatherDisplay:10.37,2013-04-16 22:46:00,
2013-04-16 17:52:00,51.8,32.7,30.11,NE,45,0.7,5.8,48,0.00,OVC,FEW,0.00,WeatherDisplay:10.37,2013-04-16 22:52:00,
2013-04-16 17:57:00,51.8,33.2,30.12,East,90,0.7,4.6,49,0.00,OVC,FEW,0.00,WeatherDisplay:10.37,2013-04-16 22:57:00,
2013-04-16 18:03:00,51.8,32.7,30.12,East,90,0.7,4.6,48,0.00,OVC,FEW,0.00,WeatherDisplay:10.37,2013-04-16 23:03:00,
2013-04-16 18:08:00,51.6,32.6,30.12,East,90,0.0,2.3,48,0.00,OVC,FEW,0.00,WeatherDisplay:10.37,2013-04-16 23:08:00,
2013-04-16 18:14:00,51.8,32.7,30.12,NE,45,0.0,3.5,48,0.00,OVC,FEW,0.00,WeatherDisplay:10.37,2013-04-16 23:14:00,
2013-04-16 18:20:00,52.0,32.9,30.12,NE,45,1.6,3.1,48,0.00,OVC,FEW,0.00,WeatherDisplay:10.37,2013-04-16 23:20:00,
2013-04-16 18:25:00,52.0,32.4,30.12,NE,45,0.7,3.1,47,0.00,OVC,FEW,0.00,WeatherDisplay:10.37,2013-04-16 23:25:00,
2013-04-16 18:32:00,52.0,32.4,30.12,East,90,0.7,3.5,47,0.00,OVC,FEW,0.00,WeatherDisplay:10.37,2013-04-16 23:32:00,
2013-04-16 18:37:00,51.6,32.0,30.12,East,90,0.7,5.8,47,0.00,OVC,FEW,0.00,WeatherDisplay:10.37,2013-04-16 23:37:00,
2013-04-16 18:43:00,51.6,32.6,30.12,East,90,1.6,3.5,48,0.00,OVC,FEW,0.00,WeatherDisplay:10.37,2013-04-16 23:43:00,
2013-04-16 18:48:00,51.6,32.0,30.12,East,90,1.6,3.5,47,0.00,OVC,FEW,0.00,WeatherDisplay:10.37,2013-04-16 23:48:00,
2013-04-16 18:54:00,51.6,31.5,30.12,NE,45,1.6,3.5,46,0.00,OVC,FEW,0.00,WeatherDisplay:10.37,2013-04-16 23:54:00,
2013-04-16 19:00:00,51.6,32.0,30.12,NE,45,0.7,3.5,47,0.00,OVC,FEW,0.00,WeatherDisplay:10.37,2013-04-17 00:00:00,
2013-04-16 19:05:00,51.6,32.0,30.11,SE,135,1.6,3.5,47,0.00,OVC,FEW,0.00,WeatherDisplay:10.37,2013-04-17 00:05:00,
2013-04-16 19:12:00,51.6,32.0,30.12,NE,45,2.2,4.5,47,0.00,OVC,FEW,0.00,WeatherDisplay:10.37,2013-04-17 00:12:00,
2013-04-16 19:17:00,51.6,32.0,30.12,SE,135,0.0,3.5,47,0.00,OVC,FEW,0.00,WeatherDisplay:10.37,2013-04-17 00:17:00,
2013-04-16 19:23:00,51.6,32.0,30.12,East,90,0.0,2.3,47,0.00,OVC,FEW,0.00,WeatherDisplay:10.37,2013-04-17 00:23:00,
2013-04-16 19:28:00,51.4,31.9,30.12,NE,45,0.7,2.3,47,0.00,OVC,FEW,0.00,WeatherDisplay:10.37,2013-04-17 00:28:00,
2013-04-16 19:34:00,51.4,31.9,30.12,NE,45,0.0,4.6,47,0.00,OVC,FEW,0.00,WeatherDisplay:10.37,2013-04-17 00:34:00,
2013-04-16 19:40:00,51.4,31.9,30.13,East,90,0.0,1.6,47,0.00,OVC,FEW,0.00,WeatherDisplay:10.37,2013-04-17 00:40:00,
2013-04-16 19:45:00,51.3,31.7,30.12,East,90,0.0,1.2,47,0.00,OVC,FEW,0.00,WeatherDisplay:10.37,2013-04-17 00:45:00,
2013-04-16 19:52:00,51.3,32.2,30.12,East,90,0.7,2.2,48,0.00,OVC,FEW,0.00,WeatherDisplay:10.37,2013-04-17 00:52:00,
2013-04-16 19:57:00,51.3,32.2,30.12,East,90,0.7,2.3,48,0.00,OVC,FEW,0.00,WeatherDisplay:10.37,2013-04-17 00:57:00,
2013-04-16 20:03:00,51.1,32.1,30.12,NE,45,0.0,2.3,48,0.00,OVC,FEW,0.00,WeatherDisplay:10.37,2013-04-17 01:03:00,
2013-04-16 20:08:00,51.1,32.6,30.13,NE,45,0.0,1.6,49,0.00,OVC,FEW,0.00,WeatherDisplay:10.37,2013-04-17 01:08:00,
2013-04-16 20:14:00,51.1,32.6,30.13,East,90,0.0,1.2,49,0.00,OVC,FEW,0.00,WeatherDisplay:10.37,2013-04-17 01:14:00,
2013-04-16 20:20:00,51.1,32.6,30.12,NE,45,1.6,3.1,49,0.00,OVC,FEW,0.00,WeatherDisplay:10.37,2013-04-17 01:20:00,
2013-04-16 20:25:00,51.1,32.6,30.13,East,90,0.0,2.3,49,0.00,OVC,FEW,0.00,WeatherDisplay:10.37,2013-04-17 01:25:00,
2013-04-16 20:31:00,51.1,33.1,30.14,East,90,0.0,0.0,50,0.00,OVC,FEW,0.00,WeatherDisplay:10.37,2013-04-17 01:31:00,
2013-04-16 20:36:00,50.9,32.9,30.14,East,90,0.0,0.0,50,0.00,OVC,FEW,0.00,WeatherDisplay:10.37,2013-04-17 01:36:00,
2013-04-16 20:42:00,50.9,33.4,30.14,NE,45,0.0,0.0,51,0.00,OVC,FEW,0.00,WeatherDisplay:10.37,2013-04-17 01:42:00,
2013-04-16 20:48:00,50.9,33.4,30.14,East,90,0.0,0.0,51,0.00,OVC,FEW,0.00,WeatherDisplay:10.37,2013-04-17 01:48:00,
2013-04-16 20:53:00,50.7,33.2,30.14,NE,45,0.7,2.3,51,0.00,OVC,FEW,0.00,WeatherDisplay:10.37,2013-04-17 01:53:00,
2013-04-16 20:59:00,50.9,33.9,30.15,East,90,0.0,1.2,52,0.00,OVC,FEW,0.00,WeatherDisplay:10.37,2013-04-17 01:59:00,
2013-04-16 21:04:00,50.7,33.2,30.14,NE,45,0.0,0.0,51,0.00,OVC,FEW,0.00,WeatherDisplay:10.37,2013-04-17 02:04:00,
2013-04-16 21:10:00,50.9,33.9,30.14,SE,135,0.0,1.2,52,0.00,OVC,FEW,0.00,WeatherDisplay:10.37,2013-04-17 02:10:00,
2013-04-16 21:16:00,50.9,33.9,30.15,NE,45,0.0,1.2,52,0.00,OVC,FEW,0.00,WeatherDisplay:10.37,2013-04-17 02:16:00,
2013-04-16 21:21:00,50.7,33.7,30.15,East,90,0.7,1.6,52,0.00,OVC,FEW,0.00,WeatherDisplay:10.37,2013-04-17 02:21:00,
2013-04-16 21:27:00,50.7,33.7,30.15,East,90,0.7,1.6,52,0.00,OVC,FEW,0.00,WeatherDisplay:10.37,2013-04-17 02:27:00,
2013-04-16 21:32:00,50.7,33.7,30.15,East,90,0.0,1.2,52,0.00,OVC,FEW,0.00,WeatherDisplay:10.37,2013-04-17 02:32:00,
2013-04-16 21:38:00,50.7,34.2,30.15,NE,45,0.0,1.2,53,0.00,OVC,FEW,0.00,WeatherDisplay:10.37,2013-04-17 02:38:00,
2013-04-16 21:44:00,50.7,34.2,30.15,East,90,0.0,2.3,53,0.00,OVC,FEW,0.00,WeatherDisplay:10.37,2013-04-17 02:44:00,
2013-04-16 21:49:00,50.9,33.9,30.15,East,90,0.7,3.5,52,0.00,OVC,FEW,0.00,WeatherDisplay:10.37,2013-04-17 02:49:00,
2013-04-16 21:55:00,50.7,33.7,30.15,East,90,0.0,2.3,52,0.00,OVC,FEW,0.00,WeatherDisplay:10.37,2013-04-17 02:55:00,
2013-04-16 22:00:00,50.9,33.9,30.15,East,90,0.7,2.3,52,0.00,OVC,FEW,0.00,WeatherDisplay:10.37,2013-04-17 03:00:00,
2013-04-16 22:06:00,50.7,34.2,30.15,East,90,0.7,3.5,53,0.00,OVC,FEW,0.00,WeatherDisplay:10.37,2013-04-17 03:06:00,
2013-04-16 22:12:00,50.7,34.2,30.15,NE,45,0.0,1.6,53,0.00,OVC,FEW,0.00,WeatherDisplay:10.37,2013-04-17 03:12:00,
2013-04-16 22:17:00,50.7,34.2,30.15,NE,45,1.6,3.5,53,0.00,OVC,FEW,0.00,WeatherDisplay:10.37,2013-04-17 03:17:00,
2013-04-16 22:23:00,50.9,34.4,30.15,East,90,1.6,3.5,53,0.00,OVC,FEW,0.00,WeatherDisplay:10.37,2013-04-17 03:23:00,
2013-04-16 22:28:00,50.9,34.4,30.15,North,0,0.0,0.0,53,0.00,OVC,FEW,0.00,WeatherDisplay:10.37,2013-04-17 03:28:00,
2013-04-16 22:34:00,50.7,34.7,30.16,West,270,0.0,0.0,54,0.00,OVC,FEW,0.00,WeatherDisplay:10.37,2013-04-17 03:34:00,
2013-04-16 22:40:00,50.7,34.7,30.15,East,90,0.7,3.5,54,0.00,OVC,FEW,0.00,WeatherDisplay:10.37,2013-04-17 03:40:00,
2013-04-16 22:45:00,50.7,34.7,30.14,East,90,1.6,3.5,54,0.00,OVC,FEW,0.00,WeatherDisplay:10.37,2013-04-17 03:45:00,
2013-04-16 22:51:00,50.7,34.7,30.14,NE,45,2.2,3.5,54,0.00,OVC,FEW,0.00,WeatherDisplay:10.37,2013-04-17 03:51:00,
2013-04-16 22:56:00,50.9,34.8,30.15,NE,45,0.7,1.6,54,0.00,OVC,FEW,0.00,WeatherDisplay:10.37,2013-04-17 03:56:00,
2013-04-16 23:00:00,50.9,34.8,30.15,NE,45,0.7,1.6,54,0.00,OVC,FEW,0.00,WeatherDisplay:10.37,2013-04-17 04:00:00,
2013-04-16 23:02:00,42.3,7.0,30.21,NW,315,4.5,10.7,23,0.00,OVC,FEW,0.00,WeatherDisplay:10.37,2013-04-17 04:02:00,
2013-04-16 23:03:00,42.3,7.0,30.21,NW,315,4.5,4.5,23,0.00,OVC,FEW,0.00,WeatherDisplay:10.37,2013-04-17 04:03:00,
2013-04-16 23:04:00,50.9,34.8,30.14,NE,45,0.7,10.4,54,0.00,OVC,FEW,0.00,WeatherDisplay:10.37,2013-04-17 04:04:00,
2013-04-16 23:09:00,50.7,35.6,30.14,East,90,1.6,3.5,56,0.00,OVC,FEW,0.00,WeatherDisplay:10.37,2013-04-17 04:09:00,
2013-04-16 23:15:00,50.7,35.6,30.14,NE,45,0.7,2.3,56,0.00,OVC,FEW,0.00,WeatherDisplay:10.37,2013-04-17 04:15:00,
2013-04-16 23:20:00,50.7,35.6,30.14,East,90,1.6,3.8,56,0.00,OVC,FEW,0.00,WeatherDisplay:10.37,2013-04-17 04:20:00,
2013-04-16 23:26:00,50.7,36.0,30.14,North,0,0.7,2.3,57,0.00,OVC,FEW,0.00,WeatherDisplay:10.37,2013-04-17 04:26:00,
2013-04-16 23:32:00,50.7,35.6,30.15,NE,45,0.7,1.6,56,0.00,OVC,FEW,0.00,WeatherDisplay:10.37,2013-04-17 04:32:00,
2013-04-16 23:37:00,50.7,35.6,30.15,NE,45,1.6,2.3,56,0.00,OVC,FEW,0.00,WeatherDisplay:10.37,2013-04-17 04:37:00,
2013-04-16 23:43:00,50.7,35.6,30.15,NE,45,1.6,2.3,56,0.00,OVC,FEW,0.00,WeatherDisplay:10.37,2013-04-17 04:43:00,
2013-04-16 23:48:00,50.9,35.7,30.15,NE,45,0.7,2.3,56,0.00,OVC,FEW,0.00,WeatherDisplay:10.37,2013-04-17 04:48:00,
2013-04-16 23:54:00,50.9,35.7,30.15,North,0,2.2,3.5,56,0.00,OVC,FEW,0.00,WeatherDisplay:10.37,2013-04-17 04:54:00,